Aviation Digital Data Service (ADDS)

Output produced by METARs form (1201 UTC 16 July 2019)
found at http://www.aviationweather.gov/metar/data/
 
TGPY 160933Z 1612/1712 08015KT 9999 FEW020 
     BECMG 1700/1702 10012KT FEW018 
     PROB40 
     TEMPO 1706/1712 6000 SHRA BKN019 
     BECMG 1709/1711 12015KT SCT018